Terminal Aerodrome Forecast
Issued by NWS

Current Version | Previous Version | Graphics & Text | Print | Product List | Glossary On
Versions: 1 2 3 4 5 6 7 8 9 10 11 12 13 14 15 16 17 18 19 20 21
000
FTUS41 KILN 231100
TAFLUK
TAF
KLUK 231128Z 2312/2412 08003KT P6SM OVC025
     FM231600 06003KT P6SM SCT025 OVC100
     FM240000 00000KT P6SM SCT025 OVC080
     FM240600 29003KT P6SM FEW015 SCT250=

USA.gov is the U.S. government's official web portal to all federal, state and local government web resources and services.